sensor_id;sensor_type;location;lat;lon;timestamp;temperature;humidity
39023;DHT22;25908;51.984;5.928;2023-05-07T00:02:02;16.50;99.90
39023;DHT22;25908;51.984;5.928;2023-05-07T00:04:29;16.50;99.90
39023;DHT22;25908;51.984;5.928;2023-05-07T00:07:01;16.40;99.90
39023;DHT22;25908;51.984;5.928;2023-05-07T00:09:26;16.40;99.90
39023;DHT22;25908;51.984;5.928;2023-05-07T00:11:52;16.40;99.90
39023;DHT22;25908;51.984;5.928;2023-05-07T00:14:18;16.40;99.90
39023;DHT22;25908;51.984;5.928;2023-05-07T00:16:43;16.50;99.90
39023;DHT22;25908;51.984;5.928;2023-05-07T00:19:09;16.40;99.90
39023;DHT22;25908;51.984;5.928;2023-05-07T00:21:34;16.40;99.90
39023;DHT22;25908;51.984;5.928;2023-05-07T00:24:00;16.40;99.90
39023;DHT22;25908;51.984;5.928;2023-05-07T00:26:26;16.40;99.90
39023;DHT22;25908;51.984;5.928;2023-05-07T00:28:51;16.40;99.90
39023;DHT22;25908;51.984;5.928;2023-05-07T00:31:17;16.40;99.90
39023;DHT22;25908;51.984;5.928;2023-05-07T00:33:42;16.40;99.90
39023;DHT22;25908;51.984;5.928;2023-05-07T00:36:08;16.40;99.90
39023;DHT22;25908;51.984;5.928;2023-05-07T00:38:33;16.40;99.90
39023;DHT22;25908;51.984;5.928;2023-05-07T00:40:59;16.40;99.90
39023;DHT22;25908;51.984;5.928;2023-05-07T00:43:25;16.40;99.90
39023;DHT22;25908;51.984;5.928;2023-05-07T00:45:51;16.40;99.90
39023;DHT22;25908;51.984;5.928;2023-05-07T00:48:16;16.20;99.90
39023;DHT22;25908;51.984;5.928;2023-05-07T00:50:42;16.30;99.90
39023;DHT22;25908;51.984;5.928;2023-05-07T00:53:08;16.30;99.90
39023;DHT22;25908;51.984;5.928;2023-05-07T00:55:35;16.30;99.90
39023;DHT22;25908;51.984;5.928;2023-05-07T00:58:01;16.30;99.90
39023;DHT22;25908;51.984;5.928;2023-05-07T01:00:26;16.20;99.90
39023;DHT22;25908;51.984;5.928;2023-05-07T01:02:52;16.20;99.90
39023;DHT22;25908;51.984;5.928;2023-05-07T01:05:19;16.20;99.90
39023;DHT22;25908;51.984;5.928;2023-05-07T01:07:45;16.20;99.90
39023;DHT22;25908;51.984;5.928;2023-05-07T01:10:12;16.20;99.90
39023;DHT22;25908;51.984;5.928;2023-05-07T01:12:40;16.20;99.90
39023;DHT22;25908;51.984;5.928;2023-05-07T01:15:08;16.10;99.90
39023;DHT22;25908;51.984;5.928;2023-05-07T01:17:39;16.10;99.90
39023;DHT22;25908;51.984;5.928;2023-05-07T01:20:06;16.10;99.90
39023;DHT22;25908;51.984;5.928;2023-05-07T01:22:33;16.10;99.90
39023;DHT22;25908;51.984;5.928;2023-05-07T01:25:00;16.10;99.90
39023;DHT22;25908;51.984;5.928;2023-05-07T01:27:27;16.10;99.90
39023;DHT22;25908;51.984;5.928;2023-05-07T01:29:52;16.00;99.90
39023;DHT22;25908;51.984;5.928;2023-05-07T01:32:23;16.00;99.90
39023;DHT22;25908;51.984;5.928;2023-05-07T01:34:51;16.00;99.90
39023;DHT22;25908;51.984;5.928;2023-05-07T01:37:18;16.00;99.90
39023;DHT22;25908;51.984;5.928;2023-05-07T01:39:44;16.00;99.90
39023;DHT22;25908;51.984;5.928;2023-05-07T01:42:09;16.00;99.90
39023;DHT22;25908;51.984;5.928;2023-05-07T01:44:35;15.90;99.90
39023;DHT22;25908;51.984;5.928;2023-05-07T01:47:02;16.00;99.90
39023;DHT22;25908;51.984;5.928;2023-05-07T01:49:28;16.00;99.90
39023;DHT22;25908;51.984;5.928;2023-05-07T01:51:53;16.00;99.90
39023;DHT22;25908;51.984;5.928;2023-05-07T01:54:19;16.00;99.90
39023;DHT22;25908;51.984;5.928;2023-05-07T01:56:45;16.00;99.90
39023;DHT22;25908;51.984;5.928;2023-05-07T01:59:13;15.90;99.90
39023;DHT22;25908;51.984;5.928;2023-05-07T02:01:38;15.90;99.90
39023;DHT22;25908;51.984;5.928;2023-05-07T02:04:04;15.90;99.90
39023;DHT22;25908;51.984;5.928;2023-05-07T02:06:30;15.90;99.90
39023;DHT22;25908;51.984;5.928;2023-05-07T02:08:56;15.90;99.90
39023;DHT22;25908;51.984;5.928;2023-05-07T02:11:22;15.90;99.90
39023;DHT22;25908;51.984;5.928;2023-05-07T02:13:47;15.90;99.90
39023;DHT22;25908;51.984;5.928;2023-05-07T02:16:13;15.90;99.90
39023;DHT22;25908;51.984;5.928;2023-05-07T02:18:39;15.90;99.90
39023;DHT22;25908;51.984;5.928;2023-05-07T02:21:05;15.90;99.90
39023;DHT22;25908;51.984;5.928;2023-05-07T02:23:30;15.90;99.90
39023;DHT22;25908;51.984;5.928;2023-05-07T02:25:56;15.90;99.90
39023;DHT22;25908;51.984;5.928;2023-05-07T02:28:21;15.90;99.90
39023;DHT22;25908;51.984;5.928;2023-05-07T02:30:47;15.90;99.90
39023;DHT22;25908;51.984;5.928;2023-05-07T02:33:13;15.90;99.90
39023;DHT22;25908;51.984;5.928;2023-05-07T02:35:39;15.90;99.90
39023;DHT22;25908;51.984;5.928;2023-05-07T02:38:04;15.90;99.90
39023;DHT22;25908;51.984;5.928;2023-05-07T02:40:30;15.80;99.90
39023;DHT22;25908;51.984;5.928;2023-05-07T02:42:59;15.90;99.90
39023;DHT22;25908;51.984;5.928;2023-05-07T02:45:24;15.90;99.90
39023;DHT22;25908;51.984;5.928;2023-05-07T02:47:50;15.80;99.90
39023;DHT22;25908;51.984;5.928;2023-05-07T02:50:16;15.80;99.90
39023;DHT22;25908;51.984;5.928;2023-05-07T02:52:41;15.80;99.90
39023;DHT22;25908;51.984;5.928;2023-05-07T02:55:07;15.80;99.90
39023;DHT22;25908;51.984;5.928;2023-05-07T02:57:33;15.80;99.90
39023;DHT22;25908;51.984;5.928;2023-05-07T02:59:58;15.80;99.90
39023;DHT22;25908;51.984;5.928;2023-05-07T03:02:24;15.80;99.90
39023;DHT22;25908;51.984;5.928;2023-05-07T03:04:50;15.80;99.90
39023;DHT22;25908;51.984;5.928;2023-05-07T03:07:15;15.80;99.90
39023;DHT22;25908;51.984;5.928;2023-05-07T03:09:41;15.80;99.90
39023;DHT22;25908;51.984;5.928;2023-05-07T03:12:06;15.80;99.90
39023;DHT22;25908;51.984;5.928;2023-05-07T03:14:32;15.80;99.90
39023;DHT22;25908;51.984;5.928;2023-05-07T03:16:58;15.80;99.90
39023;DHT22;25908;51.984;5.928;2023-05-07T03:19:23;15.80;99.90
39023;DHT22;25908;51.984;5.928;2023-05-07T03:21:49;15.70;99.90
39023;DHT22;25908;51.984;5.928;2023-05-07T03:24:14;15.70;99.90
39023;DHT22;25908;51.984;5.928;2023-05-07T03:26:40;15.70;99.90
39023;DHT22;25908;51.984;5.928;2023-05-07T03:29:05;15.70;99.90
39023;DHT22;25908;51.984;5.928;2023-05-07T03:31:31;15.70;99.90
39023;DHT22;25908;51.984;5.928;2023-05-07T03:33:57;15.70;99.90
39023;DHT22;25908;51.984;5.928;2023-05-07T03:36:23;15.70;99.90
39023;DHT22;25908;51.984;5.928;2023-05-07T03:38:49;15.60;99.90
39023;DHT22;25908;51.984;5.928;2023-05-07T03:41:15;15.60;99.90
39023;DHT22;25908;51.984;5.928;2023-05-07T03:43:41;15.60;99.90
39023;DHT22;25908;51.984;5.928;2023-05-07T03:46:07;15.70;99.90
39023;DHT22;25908;51.984;5.928;2023-05-07T03:48:32;15.70;99.90
39023;DHT22;25908;51.984;5.928;2023-05-07T03:50:58;15.70;99.90
39023;DHT22;25908;51.984;5.928;2023-05-07T03:53:24;15.70;99.90
39023;DHT22;25908;51.984;5.928;2023-05-07T03:55:50;15.50;99.90
39023;DHT22;25908;51.984;5.928;2023-05-07T03:58:16;15.60;99.90
39023;DHT22;25908;51.984;5.928;2023-05-07T04:00:42;15.70;99.90
39023;DHT22;25908;51.984;5.928;2023-05-07T04:03:07;15.60;99.90
39023;DHT22;25908;51.984;5.928;2023-05-07T04:05:33;15.60;99.90
39023;DHT22;25908;51.984;5.928;2023-05-07T04:08:00;15.60;99.90
39023;DHT22;25908;51.984;5.928;2023-05-07T04:10:25;15.60;99.90
39023;DHT22;25908;51.984;5.928;2023-05-07T04:12:51;15.60;99.90
39023;DHT22;25908;51.984;5.928;2023-05-07T04:15:17;15.60;99.90
39023;DHT22;25908;51.984;5.928;2023-05-07T04:17:42;15.60;99.90
39023;DHT22;25908;51.984;5.928;2023-05-07T04:20:16;15.60;99.90
39023;DHT22;25908;51.984;5.928;2023-05-07T04:22:42;15.60;99.90
39023;DHT22;25908;51.984;5.928;2023-05-07T04:25:08;15.60;99.90
39023;DHT22;25908;51.984;5.928;2023-05-07T04:27:37;15.60;99.90
39023;DHT22;25908;51.984;5.928;2023-05-07T04:30:03;15.50;99.90
39023;DHT22;25908;51.984;5.928;2023-05-07T04:32:29;15.50;99.90
39023;DHT22;25908;51.984;5.928;2023-05-07T04:34:56;15.50;99.90
39023;DHT22;25908;51.984;5.928;2023-05-07T04:37:22;15.50;99.90
39023;DHT22;25908;51.984;5.928;2023-05-07T04:39:48;15.50;99.90
39023;DHT22;25908;51.984;5.928;2023-05-07T04:42:16;15.50;99.90
39023;DHT22;25908;51.984;5.928;2023-05-07T04:44:43;15.50;99.90
39023;DHT22;25908;51.984;5.928;2023-05-07T04:47:09;15.50;99.90
39023;DHT22;25908;51.984;5.928;2023-05-07T04:49:35;15.50;99.90
39023;DHT22;25908;51.984;5.928;2023-05-07T04:52:01;15.50;99.90
39023;DHT22;25908;51.984;5.928;2023-05-07T04:54:26;15.50;99.90
39023;DHT22;25908;51.984;5.928;2023-05-07T04:56:52;15.50;99.90
39023;DHT22;25908;51.984;5.928;2023-05-07T04:59:17;15.50;99.90
39023;DHT22;25908;51.984;5.928;2023-05-07T05:01:43;15.50;99.90
39023;DHT22;25908;51.984;5.928;2023-05-07T05:04:09;15.50;99.90
39023;DHT22;25908;51.984;5.928;2023-05-07T05:06:35;15.50;99.90
39023;DHT22;25908;51.984;5.928;2023-05-07T05:09:01;15.50;99.90
39023;DHT22;25908;51.984;5.928;2023-05-07T05:11:26;15.50;99.90
39023;DHT22;25908;51.984;5.928;2023-05-07T05:13:52;15.50;99.90
39023;DHT22;25908;51.984;5.928;2023-05-07T05:16:18;15.50;99.90
39023;DHT22;25908;51.984;5.928;2023-05-07T05:18:43;15.60;99.90
39023;DHT22;25908;51.984;5.928;2023-05-07T05:21:09;15.60;99.90
39023;DHT22;25908;51.984;5.928;2023-05-07T05:23:34;15.50;99.90
39023;DHT22;25908;51.984;5.928;2023-05-07T05:26:00;15.60;99.90
39023;DHT22;25908;51.984;5.928;2023-05-07T05:28:25;15.60;99.90
39023;DHT22;25908;51.984;5.928;2023-05-07T05:30:52;15.60;99.90
39023;DHT22;25908;51.984;5.928;2023-05-07T05:33:18;15.60;99.90
39023;DHT22;25908;51.984;5.928;2023-05-07T05:35:43;15.60;99.90
39023;DHT22;25908;51.984;5.928;2023-05-07T05:38:09;15.60;99.90
39023;DHT22;25908;51.984;5.928;2023-05-07T05:40:34;15.60;99.90
39023;DHT22;25908;51.984;5.928;2023-05-07T05:43:00;15.60;99.90
39023;DHT22;25908;51.984;5.928;2023-05-07T05:45:26;15.70;99.90
39023;DHT22;25908;51.984;5.928;2023-05-07T05:47:51;15.60;99.90
39023;DHT22;25908;51.984;5.928;2023-05-07T05:50:17;15.60;99.90
39023;DHT22;25908;51.984;5.928;2023-05-07T05:52:43;15.60;99.90
39023;DHT22;25908;51.984;5.928;2023-05-07T05:55:08;15.70;99.90
39023;DHT22;25908;51.984;5.928;2023-05-07T05:57:34;15.70;99.90
39023;DHT22;25908;51.984;5.928;2023-05-07T06:00:01;15.70;99.90
39023;DHT22;25908;51.984;5.928;2023-05-07T06:02:27;15.70;99.90
39023;DHT22;25908;51.984;5.928;2023-05-07T06:04:53;15.70;99.90
39023;DHT22;25908;51.984;5.928;2023-05-07T06:07:19;15.70;99.90
39023;DHT22;25908;51.984;5.928;2023-05-07T06:09:44;15.70;99.90
39023;DHT22;25908;51.984;5.928;2023-05-07T06:12:10;15.70;99.90
39023;DHT22;25908;51.984;5.928;2023-05-07T06:14:35;15.80;99.90
39023;DHT22;25908;51.984;5.928;2023-05-07T06:17:01;15.80;99.90
39023;DHT22;25908;51.984;5.928;2023-05-07T06:19:27;15.80;99.90
39023;DHT22;25908;51.984;5.928;2023-05-07T06:21:53;15.80;99.90
39023;DHT22;25908;51.984;5.928;2023-05-07T06:24:20;15.80;99.90
39023;DHT22;25908;51.984;5.928;2023-05-07T06:26:45;15.80;99.90
39023;DHT22;25908;51.984;5.928;2023-05-07T06:29:11;15.80;99.90
39023;DHT22;25908;51.984;5.928;2023-05-07T06:31:36;15.80;99.90
39023;DHT22;25908;51.984;5.928;2023-05-07T06:34:02;15.80;99.90
39023;DHT22;25908;51.984;5.928;2023-05-07T06:36:28;15.80;99.90
39023;DHT22;25908;51.984;5.928;2023-05-07T06:38:54;15.90;99.90
39023;DHT22;25908;51.984;5.928;2023-05-07T06:41:20;15.90;99.90
39023;DHT22;25908;51.984;5.928;2023-05-07T06:43:45;16.00;99.90
39023;DHT22;25908;51.984;5.928;2023-05-07T06:46:11;16.00;99.90
39023;DHT22;25908;51.984;5.928;2023-05-07T06:48:37;16.10;99.90
39023;DHT22;25908;51.984;5.928;2023-05-07T06:51:02;16.10;99.90
39023;DHT22;25908;51.984;5.928;2023-05-07T06:53:28;16.20;99.90
39023;DHT22;25908;51.984;5.928;2023-05-07T06:55:56;16.20;99.90
39023;DHT22;25908;51.984;5.928;2023-05-07T06:58:22;16.20;99.90
39023;DHT22;25908;51.984;5.928;2023-05-07T07:00:47;16.30;99.90
39023;DHT22;25908;51.984;5.928;2023-05-07T07:03:13;16.20;99.90
39023;DHT22;25908;51.984;5.928;2023-05-07T07:05:40;16.30;99.90
39023;DHT22;25908;51.984;5.928;2023-05-07T07:08:06;16.40;99.90
39023;DHT22;25908;51.984;5.928;2023-05-07T07:10:32;16.40;99.90
39023;DHT22;25908;51.984;5.928;2023-05-07T07:12:57;16.50;99.90
39023;DHT22;25908;51.984;5.928;2023-05-07T07:15:23;16.50;99.90
39023;DHT22;25908;51.984;5.928;2023-05-07T07:17:50;16.50;99.90
39023;DHT22;25908;51.984;5.928;2023-05-07T07:20:16;16.60;99.90
39023;DHT22;25908;51.984;5.928;2023-05-07T07:22:42;16.70;99.90
39023;DHT22;25908;51.984;5.928;2023-05-07T07:25:08;16.70;99.90
39023;DHT22;25908;51.984;5.928;2023-05-07T07:27:33;16.60;99.90
39023;DHT22;25908;51.984;5.928;2023-05-07T07:29:59;16.60;99.90
39023;DHT22;25908;51.984;5.928;2023-05-07T07:32:24;16.60;99.90
39023;DHT22;25908;51.984;5.928;2023-05-07T07:34:50;16.50;99.90
39023;DHT22;25908;51.984;5.928;2023-05-07T07:37:16;16.50;99.90
39023;DHT22;25908;51.984;5.928;2023-05-07T07:39:42;16.60;99.90
39023;DHT22;25908;51.984;5.928;2023-05-07T07:42:07;16.50;99.90
39023;DHT22;25908;51.984;5.928;2023-05-07T07:44:33;16.60;99.90
39023;DHT22;25908;51.984;5.928;2023-05-07T07:46:58;16.60;99.90
39023;DHT22;25908;51.984;5.928;2023-05-07T07:49:24;16.70;99.90
39023;DHT22;25908;51.984;5.928;2023-05-07T07:51:50;16.70;99.90
39023;DHT22;25908;51.984;5.928;2023-05-07T07:54:16;16.80;99.90
39023;DHT22;25908;51.984;5.928;2023-05-07T07:56:42;16.80;99.90
39023;DHT22;25908;51.984;5.928;2023-05-07T07:59:07;16.80;99.90
39023;DHT22;25908;51.984;5.928;2023-05-07T08:01:33;16.80;99.90
39023;DHT22;25908;51.984;5.928;2023-05-07T08:03:58;16.80;99.90
39023;DHT22;25908;51.984;5.928;2023-05-07T08:06:24;16.90;99.90
39023;DHT22;25908;51.984;5.928;2023-05-07T08:08:51;16.90;99.90
39023;DHT22;25908;51.984;5.928;2023-05-07T08:11:17;17.00;99.90
39023;DHT22;25908;51.984;5.928;2023-05-07T08:13:42;17.00;99.90
39023;DHT22;25908;51.984;5.928;2023-05-07T08:16:08;17.00;99.90
39023;DHT22;25908;51.984;5.928;2023-05-07T08:18:34;17.00;99.90
39023;DHT22;25908;51.984;5.928;2023-05-07T08:21:01;17.00;99.90
39023;DHT22;25908;51.984;5.928;2023-05-07T08:23:26;17.10;99.90
39023;DHT22;25908;51.984;5.928;2023-05-07T08:25:52;17.20;99.90
39023;DHT22;25908;51.984;5.928;2023-05-07T08:28:18;17.20;99.90
39023;DHT22;25908;51.984;5.928;2023-05-07T08:30:45;17.20;99.90
39023;DHT22;25908;51.984;5.928;2023-05-07T08:33:10;17.20;99.90
39023;DHT22;25908;51.984;5.928;2023-05-07T08:35:36;17.30;99.90
39023;DHT22;25908;51.984;5.928;2023-05-07T08:38:01;17.30;99.90
39023;DHT22;25908;51.984;5.928;2023-05-07T08:40:27;17.30;99.90
39023;DHT22;25908;51.984;5.928;2023-05-07T08:42:53;17.40;99.90
39023;DHT22;25908;51.984;5.928;2023-05-07T08:45:20;17.40;99.90
39023;DHT22;25908;51.984;5.928;2023-05-07T08:47:48;17.40;99.90
39023;DHT22;25908;51.984;5.928;2023-05-07T08:50:15;17.50;99.90
39023;DHT22;25908;51.984;5.928;2023-05-07T08:52:41;17.50;99.90
39023;DHT22;25908;51.984;5.928;2023-05-07T08:55:08;17.50;99.90
39023;DHT22;25908;51.984;5.928;2023-05-07T08:57:35;17.60;99.90
39023;DHT22;25908;51.984;5.928;2023-05-07T09:00:02;17.60;99.90
39023;DHT22;25908;51.984;5.928;2023-05-07T09:02:28;17.60;99.90
39023;DHT22;25908;51.984;5.928;2023-05-07T09:04:54;17.70;99.90
39023;DHT22;25908;51.984;5.928;2023-05-07T09:07:20;17.70;99.90
39023;DHT22;25908;51.984;5.928;2023-05-07T09:09:46;17.70;99.90
39023;DHT22;25908;51.984;5.928;2023-05-07T09:12:12;17.80;99.90
39023;DHT22;25908;51.984;5.928;2023-05-07T09:14:38;17.80;99.90
39023;DHT22;25908;51.984;5.928;2023-05-07T09:17:04;17.90;99.90
39023;DHT22;25908;51.984;5.928;2023-05-07T09:19:30;18.00;99.90
39023;DHT22;25908;51.984;5.928;2023-05-07T09:22:00;18.10;99.90
39023;DHT22;25908;51.984;5.928;2023-05-07T09:24:26;18.30;99.90
39023;DHT22;25908;51.984;5.928;2023-05-07T09:26:53;18.50;99.90
39023;DHT22;25908;51.984;5.928;2023-05-07T09:29:20;18.60;99.90
39023;DHT22;25908;51.984;5.928;2023-05-07T09:31:46;18.70;99.90
39023;DHT22;25908;51.984;5.928;2023-05-07T09:34:12;18.80;99.90
39023;DHT22;25908;51.984;5.928;2023-05-07T09:36:37;18.90;99.90
39023;DHT22;25908;51.984;5.928;2023-05-07T09:39:03;19.00;99.90
39023;DHT22;25908;51.984;5.928;2023-05-07T09:41:30;19.20;99.90
39023;DHT22;25908;51.984;5.928;2023-05-07T09:43:58;19.20;99.90
39023;DHT22;25908;51.984;5.928;2023-05-07T09:46:30;19.40;99.90
39023;DHT22;25908;51.984;5.928;2023-05-07T09:49:02;19.50;99.90
39023;DHT22;25908;51.984;5.928;2023-05-07T09:51:49;19.60;99.90
39023;DHT22;25908;51.984;5.928;2023-05-07T09:54:16;19.70;99.90
39023;DHT22;25908;51.984;5.928;2023-05-07T09:56:45;19.90;99.90
39023;DHT22;25908;51.984;5.928;2023-05-07T09:59:14;20.00;99.90
39023;DHT22;25908;51.984;5.928;2023-05-07T10:01:42;20.10;99.90
39023;DHT22;25908;51.984;5.928;2023-05-07T10:04:08;20.20;99.90
39023;DHT22;25908;51.984;5.928;2023-05-07T10:06:35;20.30;99.90
39023;DHT22;25908;51.984;5.928;2023-05-07T10:09:05;20.40;99.90
39023;DHT22;25908;51.984;5.928;2023-05-07T10:11:32;20.30;99.90
39023;DHT22;25908;51.984;5.928;2023-05-07T10:13:59;20.30;99.90
39023;DHT22;25908;51.984;5.928;2023-05-07T10:16:27;20.40;99.90
39023;DHT22;25908;51.984;5.928;2023-05-07T10:18:54;20.50;99.90
39023;DHT22;25908;51.984;5.928;2023-05-07T10:21:22;20.50;99.90
39023;DHT22;25908;51.984;5.928;2023-05-07T10:24:37;20.50;99.90
39023;DHT22;25908;51.984;5.928;2023-05-07T10:26:47;20.60;99.90
39023;DHT22;25908;51.984;5.928;2023-05-07T10:29:37;20.60;99.90
39023;DHT22;25908;51.984;5.928;2023-05-07T10:35:01;20.80;99.90
39023;DHT22;25908;51.984;5.928;2023-05-07T10:37:28;21.00;99.90
39023;DHT22;25908;51.984;5.928;2023-05-07T10:39:54;21.20;99.90
39023;DHT22;25908;51.984;5.928;2023-05-07T10:42:20;21.50;99.90
39023;DHT22;25908;51.984;5.928;2023-05-07T10:44:46;21.90;99.90
39023;DHT22;25908;51.984;5.928;2023-05-07T10:47:13;22.10;99.90
39023;DHT22;25908;51.984;5.928;2023-05-07T10:52:18;22.30;99.90
39023;DHT22;25908;51.984;5.928;2023-05-07T10:54:45;22.40;99.90
39023;DHT22;25908;51.984;5.928;2023-05-07T10:57:33;22.60;99.90
39023;DHT22;25908;51.984;5.928;2023-05-07T11:00:01;22.70;99.90
39023;DHT22;25908;51.984;5.928;2023-05-07T11:05:29;22.80;99.90
39023;DHT22;25908;51.984;5.928;2023-05-07T11:07:57;22.80;99.90
39023;DHT22;25908;51.984;5.928;2023-05-07T11:10:23;22.80;99.90
39023;DHT22;25908;51.984;5.928;2023-05-07T11:13:09;22.80;99.90
39023;DHT22;25908;51.984;5.928;2023-05-07T11:15:36;22.70;99.90
39023;DHT22;25908;51.984;5.928;2023-05-07T11:18:03;22.50;99.80
39023;DHT22;25908;51.984;5.928;2023-05-07T11:26:04;22.20;99.80
39023;DHT22;25908;51.984;5.928;2023-05-07T11:28:31;22.10;99.40
39023;DHT22;25908;51.984;5.928;2023-05-07T11:30:57;22.00;99.70
39023;DHT22;25908;51.984;5.928;2023-05-07T11:33:23;22.00;99.70
39023;DHT22;25908;51.984;5.928;2023-05-07T11:35:53;22.00;99.90
39023;DHT22;25908;51.984;5.928;2023-05-07T11:38:19;22.10;99.90
39023;DHT22;25908;51.984;5.928;2023-05-07T11:40:53;22.10;99.90
39023;DHT22;25908;51.984;5.928;2023-05-07T11:43:19;22.20;99.90
39023;DHT22;25908;51.984;5.928;2023-05-07T11:45:45;22.20;99.90
39023;DHT22;25908;51.984;5.928;2023-05-07T11:48:12;22.30;99.90
39023;DHT22;25908;51.984;5.928;2023-05-07T11:50:51;22.30;99.90
39023;DHT22;25908;51.984;5.928;2023-05-07T11:53:22;22.30;99.70
39023;DHT22;25908;51.984;5.928;2023-05-07T11:55:52;22.30;99.80
39023;DHT22;25908;51.984;5.928;2023-05-07T11:58:21;22.40;99.60
39023;DHT22;25908;51.984;5.928;2023-05-07T12:00:53;22.40;99.40
39023;DHT22;25908;51.984;5.928;2023-05-07T12:03:20;22.50;99.30
39023;DHT22;25908;51.984;5.928;2023-05-07T12:05:46;22.50;98.80
39023;DHT22;25908;51.984;5.928;2023-05-07T12:08:16;22.50;98.70
39023;DHT22;25908;51.984;5.928;2023-05-07T12:10:42;22.60;98.60
39023;DHT22;25908;51.984;5.928;2023-05-07T12:13:25;22.50;98.40
39023;DHT22;25908;51.984;5.928;2023-05-07T12:15:52;22.50;98.40
39023;DHT22;25908;51.984;5.928;2023-05-07T12:18:18;22.50;98.50
39023;DHT22;25908;51.984;5.928;2023-05-07T12:20:44;22.40;98.40
39023;DHT22;25908;51.984;5.928;2023-05-07T12:23:10;22.40;98.10
39023;DHT22;25908;51.984;5.928;2023-05-07T12:25:40;22.30;98.20
39023;DHT22;25908;51.984;5.928;2023-05-07T12:28:16;22.30;98.30
39023;DHT22;25908;51.984;5.928;2023-05-07T12:30:46;22.30;98.40
39023;DHT22;25908;51.984;5.928;2023-05-07T12:33:22;22.30;98.40
39023;DHT22;25908;51.984;5.928;2023-05-07T12:35:48;22.30;98.30
39023;DHT22;25908;51.984;5.928;2023-05-07T12:38:16;22.30;98.30
39023;DHT22;25908;51.984;5.928;2023-05-07T12:43:17;22.30;98.20
39023;DHT22;25908;51.984;5.928;2023-05-07T12:45:44;22.30;98.20
39023;DHT22;25908;51.984;5.928;2023-05-07T12:48:10;22.20;98.20
39023;DHT22;25908;51.984;5.928;2023-05-07T12:50:36;22.20;98.20
39023;DHT22;25908;51.984;5.928;2023-05-07T12:53:05;22.10;98.40
39023;DHT22;25908;51.984;5.928;2023-05-07T12:55:32;22.10;98.60
39023;DHT22;25908;51.984;5.928;2023-05-07T12:58:00;22.00;98.80
39023;DHT22;25908;51.984;5.928;2023-05-07T13:00:36;22.00;99.10
39023;DHT22;25908;51.984;5.928;2023-05-07T13:03:02;22.00;99.20
39023;DHT22;25908;51.984;5.928;2023-05-07T13:05:28;21.90;99.10
39023;DHT22;25908;51.984;5.928;2023-05-07T13:07:57;21.90;99.30
39023;DHT22;25908;51.984;5.928;2023-05-07T13:10:23;21.90;99.20
39023;DHT22;25908;51.984;5.928;2023-05-07T13:12:49;21.90;99.30
39023;DHT22;25908;51.984;5.928;2023-05-07T13:15:16;21.90;99.10
39023;DHT22;25908;51.984;5.928;2023-05-07T13:17:41;21.80;98.90
39023;DHT22;25908;51.984;5.928;2023-05-07T13:20:09;21.80;98.90
39023;DHT22;25908;51.984;5.928;2023-05-07T13:22:35;21.80;99.00
39023;DHT22;25908;51.984;5.928;2023-05-07T13:25:00;21.80;98.90
39023;DHT22;25908;51.984;5.928;2023-05-07T13:27:26;21.80;99.00
39023;DHT22;25908;51.984;5.928;2023-05-07T13:29:52;21.80;99.10
39023;DHT22;25908;51.984;5.928;2023-05-07T13:32:17;21.70;98.80
39023;DHT22;25908;51.984;5.928;2023-05-07T13:34:43;21.70;98.80
39023;DHT22;25908;51.984;5.928;2023-05-07T13:37:08;21.70;98.80
39023;DHT22;25908;51.984;5.928;2023-05-07T13:39:34;21.70;99.00
39023;DHT22;25908;51.984;5.928;2023-05-07T13:42:00;21.70;99.00
39023;DHT22;25908;51.984;5.928;2023-05-07T13:44:26;21.70;99.00
39023;DHT22;25908;51.984;5.928;2023-05-07T13:46:51;21.70;98.90
39023;DHT22;25908;51.984;5.928;2023-05-07T13:49:17;21.80;98.80
39023;DHT22;25908;51.984;5.928;2023-05-07T13:51:43;21.80;98.80
39023;DHT22;25908;51.984;5.928;2023-05-07T13:54:08;21.90;98.80
39023;DHT22;25908;51.984;5.928;2023-05-07T13:56:34;21.90;98.70
39023;DHT22;25908;51.984;5.928;2023-05-07T13:58:59;22.00;98.60
39023;DHT22;25908;51.984;5.928;2023-05-07T14:01:25;22.00;98.50
39023;DHT22;25908;51.984;5.928;2023-05-07T14:03:51;22.00;98.40
39023;DHT22;25908;51.984;5.928;2023-05-07T14:06:16;22.00;98.30
39023;DHT22;25908;51.984;5.928;2023-05-07T14:08:42;22.10;98.20
39023;DHT22;25908;51.984;5.928;2023-05-07T14:11:07;22.10;98.10
39023;DHT22;25908;51.984;5.928;2023-05-07T14:13:33;22.10;98.00
39023;DHT22;25908;51.984;5.928;2023-05-07T14:15:59;22.20;97.70
39023;DHT22;25908;51.984;5.928;2023-05-07T14:18:26;22.10;97.40
39023;DHT22;25908;51.984;5.928;2023-05-07T14:20:51;22.10;97.50
39023;DHT22;25908;51.984;5.928;2023-05-07T14:23:17;22.20;97.60
39023;DHT22;25908;51.984;5.928;2023-05-07T14:25:45;22.20;97.50
39023;DHT22;25908;51.984;5.928;2023-05-07T14:28:12;22.20;97.60
39023;DHT22;25908;51.984;5.928;2023-05-07T14:30:38;22.30;97.30
39023;DHT22;25908;51.984;5.928;2023-05-07T14:33:03;22.30;97.30
39023;DHT22;25908;51.984;5.928;2023-05-07T14:35:29;22.30;97.30
39023;DHT22;25908;51.984;5.928;2023-05-07T14:37:55;22.20;97.30
39023;DHT22;25908;51.984;5.928;2023-05-07T14:40:23;22.20;97.60
39023;DHT22;25908;51.984;5.928;2023-05-07T14:42:49;22.20;97.90
39023;DHT22;25908;51.984;5.928;2023-05-07T14:45:14;22.20;98.00
39023;DHT22;25908;51.984;5.928;2023-05-07T14:47:40;22.10;97.90
39023;DHT22;25908;51.984;5.928;2023-05-07T14:50:06;22.10;98.00
39023;DHT22;25908;51.984;5.928;2023-05-07T14:52:31;22.00;98.00
39023;DHT22;25908;51.984;5.928;2023-05-07T14:54:57;21.90;98.00
39023;DHT22;25908;51.984;5.928;2023-05-07T14:57:22;21.90;97.80
39023;DHT22;25908;51.984;5.928;2023-05-07T14:59:48;21.80;97.70
39023;DHT22;25908;51.984;5.928;2023-05-07T15:02:14;21.80;97.30
39023;DHT22;25908;51.984;5.928;2023-05-07T15:04:40;21.80;96.70
39023;DHT22;25908;51.984;5.928;2023-05-07T15:07:11;21.70;96.30
39023;DHT22;25908;51.984;5.928;2023-05-07T15:09:37;21.60;96.20
39023;DHT22;25908;51.984;5.928;2023-05-07T15:12:03;21.60;96.20
39023;DHT22;25908;51.984;5.928;2023-05-07T15:14:29;21.50;96.30
39023;DHT22;25908;51.984;5.928;2023-05-07T15:16:54;21.50;96.60
39023;DHT22;25908;51.984;5.928;2023-05-07T15:19:20;21.50;96.80
39023;DHT22;25908;51.984;5.928;2023-05-07T15:21:47;21.40;96.80
39023;DHT22;25908;51.984;5.928;2023-05-07T15:24:13;21.40;96.70
39023;DHT22;25908;51.984;5.928;2023-05-07T15:26:38;21.40;96.80
39023;DHT22;25908;51.984;5.928;2023-05-07T15:29:04;21.40;96.80
39023;DHT22;25908;51.984;5.928;2023-05-07T15:31:35;21.40;96.90
39023;DHT22;25908;51.984;5.928;2023-05-07T15:34:02;21.30;97.00
39023;DHT22;25908;51.984;5.928;2023-05-07T15:36:27;21.30;97.00
39023;DHT22;25908;51.984;5.928;2023-05-07T15:38:53;21.30;97.00
39023;DHT22;25908;51.984;5.928;2023-05-07T15:41:19;21.30;97.00
39023;DHT22;25908;51.984;5.928;2023-05-07T15:43:49;21.20;97.10